Terminal Aerodrome Forecast
Issued by NWS Newport/Morehead City, NC

Home | Current Version | Previous Version | Graphics & Text | Print | Product List | Glossary Off
Versions: 1 2 3 4 5 6 7 8 9 10 11 12 13 14

000
FTUS42 KMHX 210500 RRA
TAFEWN
TAF
KEWN 210548Z 2106/2206 02003KT P6SM SCT060
     FM211200 02006KT P6SM BKN100
     FM220200 04006KT P6SM OVC025=

USA.gov is the U.S. government's official web portal to all federal, state and local government web resources and services.